sensor_id;sensor_type;location;lat;lon;timestamp;temperature;humidity
18085;DHT22;9169;44.492;11.372;2023-06-22T00:01:25;31.50;38.20
18085;DHT22;9169;44.492;11.372;2023-06-22T00:03:53;31.50;38.60
18085;DHT22;9169;44.492;11.372;2023-06-22T00:06:22;31.50;38.80
18085;DHT22;9169;44.492;11.372;2023-06-22T00:08:50;31.50;38.80
18085;DHT22;9169;44.492;11.372;2023-06-22T00:11:19;31.50;38.70
18085;DHT22;9169;44.492;11.372;2023-06-22T00:13:48;31.50;38.80
18085;DHT22;9169;44.492;11.372;2023-06-22T00:16:18;31.50;38.90
18085;DHT22;9169;44.492;11.372;2023-06-22T00:18:48;31.50;39.10
18085;DHT22;9169;44.492;11.372;2023-06-22T00:21:16;31.50;39.40
18085;DHT22;9169;44.492;11.372;2023-06-22T00:23:47;31.50;39.50
18085;DHT22;9169;44.492;11.372;2023-06-22T00:26:16;31.50;39.80
18085;DHT22;9169;44.492;11.372;2023-06-22T00:28:45;31.50;39.70
18085;DHT22;9169;44.492;11.372;2023-06-22T00:31:13;31.50;39.50
18085;DHT22;9169;44.492;11.372;2023-06-22T00:33:42;31.40;39.60
18085;DHT22;9169;44.492;11.372;2023-06-22T00:36:12;31.40;39.60
18085;DHT22;9169;44.492;11.372;2023-06-22T00:38:43;31.40;39.80
18085;DHT22;9169;44.492;11.372;2023-06-22T00:41:11;31.40;39.90
18085;DHT22;9169;44.492;11.372;2023-06-22T00:43:41;31.40;39.70
18085;DHT22;9169;44.492;11.372;2023-06-22T00:46:10;31.30;39.60
18085;DHT22;9169;44.492;11.372;2023-06-22T00:48:38;31.30;39.60
18085;DHT22;9169;44.492;11.372;2023-06-22T00:51:09;31.30;39.70
18085;DHT22;9169;44.492;11.372;2023-06-22T00:53:40;31.30;39.90
18085;DHT22;9169;44.492;11.372;2023-06-22T00:56:10;31.30;39.80
18085;DHT22;9169;44.492;11.372;2023-06-22T00:58:40;31.20;39.70
18085;DHT22;9169;44.492;11.372;2023-06-22T01:01:09;31.20;39.60
18085;DHT22;9169;44.492;11.372;2023-06-22T01:03:37;31.10;39.60
18085;DHT22;9169;44.492;11.372;2023-06-22T01:06:09;31.10;39.90
18085;DHT22;9169;44.492;11.372;2023-06-22T01:08:44;31.10;40.00
18085;DHT22;9169;44.492;11.372;2023-06-22T01:11:18;31.10;40.30
18085;DHT22;9169;44.492;11.372;2023-06-22T01:13:56;31.00;40.30
18085;DHT22;9169;44.492;11.372;2023-06-22T01:16:29;31.00;40.20
18085;DHT22;9169;44.492;11.372;2023-06-22T01:19:09;30.90;40.00
18085;DHT22;9169;44.492;11.372;2023-06-22T01:21:40;31.00;40.10
18085;DHT22;9169;44.492;11.372;2023-06-22T01:24:17;30.90;40.00
18085;DHT22;9169;44.492;11.372;2023-06-22T01:26:57;30.90;40.00
18085;DHT22;9169;44.492;11.372;2023-06-22T01:29:31;30.90;40.00
18085;DHT22;9169;44.492;11.372;2023-06-22T01:32:03;30.90;39.90
18085;DHT22;9169;44.492;11.372;2023-06-22T01:34:35;30.80;40.10
18085;DHT22;9169;44.492;11.372;2023-06-22T01:37:07;30.80;40.10
18085;DHT22;9169;44.492;11.372;2023-06-22T01:39:36;30.80;40.00
18085;DHT22;9169;44.492;11.372;2023-06-22T01:42:05;30.70;40.20
18085;DHT22;9169;44.492;11.372;2023-06-22T01:44:36;30.70;40.30
18085;DHT22;9169;44.492;11.372;2023-06-22T01:47:09;30.70;40.30
18085;DHT22;9169;44.492;11.372;2023-06-22T01:49:38;30.70;40.40
18085;DHT22;9169;44.492;11.372;2023-06-22T01:52:07;30.70;40.40
18085;DHT22;9169;44.492;11.372;2023-06-22T01:54:37;30.60;40.50
18085;DHT22;9169;44.492;11.372;2023-06-22T01:57:06;30.60;40.50
18085;DHT22;9169;44.492;11.372;2023-06-22T01:59:42;30.60;40.50
18085;DHT22;9169;44.492;11.372;2023-06-22T02:02:16;30.50;40.90
18085;DHT22;9169;44.492;11.372;2023-06-22T02:04:48;30.50;40.60
18085;DHT22;9169;44.492;11.372;2023-06-22T02:07:22;30.50;40.50
18085;DHT22;9169;44.492;11.372;2023-06-22T02:09:53;30.50;40.20
18085;DHT22;9169;44.492;11.372;2023-06-22T02:12:25;30.50;40.00
18085;DHT22;9169;44.492;11.372;2023-06-22T02:14:56;30.50;40.00
18085;DHT22;9169;44.492;11.372;2023-06-22T02:17:26;30.50;40.00
18085;DHT22;9169;44.492;11.372;2023-06-22T02:19:56;30.50;39.90
18085;DHT22;9169;44.492;11.372;2023-06-22T02:22:25;30.40;39.70
18085;DHT22;9169;44.492;11.372;2023-06-22T02:24:53;30.40;39.70
18085;DHT22;9169;44.492;11.372;2023-06-22T02:27:22;30.40;39.70
18085;DHT22;9169;44.492;11.372;2023-06-22T02:29:50;30.40;39.70
18085;DHT22;9169;44.492;11.372;2023-06-22T02:32:20;30.40;40.00
18085;DHT22;9169;44.492;11.372;2023-06-22T02:34:49;30.30;40.20
18085;DHT22;9169;44.492;11.372;2023-06-22T02:37:18;30.30;40.50
18085;DHT22;9169;44.492;11.372;2023-06-22T02:39:46;30.30;40.40
18085;DHT22;9169;44.492;11.372;2023-06-22T02:42:15;30.30;40.70
18085;DHT22;9169;44.492;11.372;2023-06-22T02:44:48;30.30;40.60
18085;DHT22;9169;44.492;11.372;2023-06-22T02:47:21;30.20;40.80
18085;DHT22;9169;44.492;11.372;2023-06-22T02:49:50;30.20;41.00
18085;DHT22;9169;44.492;11.372;2023-06-22T02:52:18;30.20;41.00
18085;DHT22;9169;44.492;11.372;2023-06-22T02:54:47;30.20;40.70
18085;DHT22;9169;44.492;11.372;2023-06-22T02:57:15;30.10;40.40
18085;DHT22;9169;44.492;11.372;2023-06-22T02:59:44;30.10;40.20
18085;DHT22;9169;44.492;11.372;2023-06-22T03:02:13;30.10;40.30
18085;DHT22;9169;44.492;11.372;2023-06-22T03:04:43;30.10;40.00
18085;DHT22;9169;44.492;11.372;2023-06-22T03:07:13;30.10;39.80
18085;DHT22;9169;44.492;11.372;2023-06-22T03:09:42;30.10;39.70
18085;DHT22;9169;44.492;11.372;2023-06-22T03:12:10;30.10;39.80
18085;DHT22;9169;44.492;11.372;2023-06-22T03:14:47;30.10;40.10
18085;DHT22;9169;44.492;11.372;2023-06-22T03:17:16;30.00;39.90
18085;DHT22;9169;44.492;11.372;2023-06-22T03:19:46;30.00;39.80
18085;DHT22;9169;44.492;11.372;2023-06-22T03:22:14;30.00;39.70
18085;DHT22;9169;44.492;11.372;2023-06-22T03:24:43;30.00;39.90
18085;DHT22;9169;44.492;11.372;2023-06-22T03:27:11;30.00;40.30
18085;DHT22;9169;44.492;11.372;2023-06-22T03:29:40;30.00;40.70
18085;DHT22;9169;44.492;11.372;2023-06-22T03:32:09;30.00;40.80
18085;DHT22;9169;44.492;11.372;2023-06-22T03:34:37;29.90;40.50
18085;DHT22;9169;44.492;11.372;2023-06-22T03:37:07;29.90;40.60
18085;DHT22;9169;44.492;11.372;2023-06-22T03:39:35;29.90;40.70
18085;DHT22;9169;44.492;11.372;2023-06-22T03:42:05;29.90;40.50
18085;DHT22;9169;44.492;11.372;2023-06-22T03:44:34;29.80;40.40
18085;DHT22;9169;44.492;11.372;2023-06-22T03:47:05;29.80;40.50
18085;DHT22;9169;44.492;11.372;2023-06-22T03:49:36;29.80;40.40
18085;DHT22;9169;44.492;11.372;2023-06-22T03:52:07;29.70;40.20
18085;DHT22;9169;44.492;11.372;2023-06-22T03:54:35;29.70;40.20
18085;DHT22;9169;44.492;11.372;2023-06-22T03:57:04;29.70;40.30
18085;DHT22;9169;44.492;11.372;2023-06-22T03:59:33;29.70;40.20
18085;DHT22;9169;44.492;11.372;2023-06-22T04:02:02;29.70;40.20
18085;DHT22;9169;44.492;11.372;2023-06-22T04:04:31;29.70;40.30
18085;DHT22;9169;44.492;11.372;2023-06-22T04:07:01;29.70;40.40
18085;DHT22;9169;44.492;11.372;2023-06-22T04:09:32;29.70;40.40
18085;DHT22;9169;44.492;11.372;2023-06-22T04:12:01;29.60;40.40
18085;DHT22;9169;44.492;11.372;2023-06-22T04:14:30;29.60;40.60
18085;DHT22;9169;44.492;11.372;2023-06-22T04:16:58;29.60;40.60
18085;DHT22;9169;44.492;11.372;2023-06-22T04:19:27;29.60;40.70
18085;DHT22;9169;44.492;11.372;2023-06-22T04:21:55;29.60;40.90
18085;DHT22;9169;44.492;11.372;2023-06-22T04:24:24;29.60;41.10
18085;DHT22;9169;44.492;11.372;2023-06-22T04:26:54;29.60;41.30
18085;DHT22;9169;44.492;11.372;2023-06-22T04:29:22;29.40;41.10
18085;DHT22;9169;44.492;11.372;2023-06-22T04:31:56;29.60;41.40
18085;DHT22;9169;44.492;11.372;2023-06-22T04:34:25;29.60;41.40
18085;DHT22;9169;44.492;11.372;2023-06-22T04:36:55;29.60;41.90
18085;DHT22;9169;44.492;11.372;2023-06-22T04:39:23;29.60;41.40
18085;DHT22;9169;44.492;11.372;2023-06-22T04:41:55;29.60;41.50
18085;DHT22;9169;44.492;11.372;2023-06-22T04:44:27;29.60;41.50
18085;DHT22;9169;44.492;11.372;2023-06-22T04:46:59;29.60;41.50
18085;DHT22;9169;44.492;11.372;2023-06-22T04:49:30;29.60;41.60
18085;DHT22;9169;44.492;11.372;2023-06-22T04:52:02;29.60;41.70
18085;DHT22;9169;44.492;11.372;2023-06-22T04:54:31;29.60;41.80
18085;DHT22;9169;44.492;11.372;2023-06-22T04:57:03;29.70;41.90
18085;DHT22;9169;44.492;11.372;2023-06-22T04:59:32;29.70;42.00
18085;DHT22;9169;44.492;11.372;2023-06-22T05:02:02;29.70;41.90
18085;DHT22;9169;44.492;11.372;2023-06-22T05:04:30;29.70;42.00
18085;DHT22;9169;44.492;11.372;2023-06-22T05:06:59;29.70;42.00
18085;DHT22;9169;44.492;11.372;2023-06-22T05:09:28;29.70;42.00
18085;DHT22;9169;44.492;11.372;2023-06-22T05:11:57;29.70;42.00
18085;DHT22;9169;44.492;11.372;2023-06-22T05:14:28;29.70;42.00
18085;DHT22;9169;44.492;11.372;2023-06-22T05:16:57;29.70;42.10
18085;DHT22;9169;44.492;11.372;2023-06-22T05:19:31;29.70;42.30
18085;DHT22;9169;44.492;11.372;2023-06-22T05:22:01;29.80;42.40
18085;DHT22;9169;44.492;11.372;2023-06-22T05:24:29;29.80;42.50
18085;DHT22;9169;44.492;11.372;2023-06-22T05:26:57;29.80;42.70
18085;DHT22;9169;44.492;11.372;2023-06-22T05:29:27;29.90;43.30
18085;DHT22;9169;44.492;11.372;2023-06-22T05:31:56;29.90;43.20
18085;DHT22;9169;44.492;11.372;2023-06-22T05:34:24;30.00;43.40
18085;DHT22;9169;44.492;11.372;2023-06-22T05:36:53;30.00;43.40
18085;DHT22;9169;44.492;11.372;2023-06-22T05:39:22;30.00;43.00
18085;DHT22;9169;44.492;11.372;2023-06-22T05:41:50;30.00;42.90
18085;DHT22;9169;44.492;11.372;2023-06-22T05:44:19;30.10;43.00
18085;DHT22;9169;44.492;11.372;2023-06-22T05:46:49;30.10;43.00
18085;DHT22;9169;44.492;11.372;2023-06-22T05:49:17;30.10;43.00
18085;DHT22;9169;44.492;11.372;2023-06-22T05:51:46;30.20;43.10
18085;DHT22;9169;44.492;11.372;2023-06-22T05:54:14;30.20;43.10
18085;DHT22;9169;44.492;11.372;2023-06-22T05:56:45;30.30;43.20
18085;DHT22;9169;44.492;11.372;2023-06-22T05:59:13;30.30;43.10
18085;DHT22;9169;44.492;11.372;2023-06-22T06:01:42;30.40;43.60
18085;DHT22;9169;44.492;11.372;2023-06-22T06:04:11;30.40;42.90
18085;DHT22;9169;44.492;11.372;2023-06-22T06:06:40;30.40;43.00
18085;DHT22;9169;44.492;11.372;2023-06-22T06:09:08;30.40;42.90
18085;DHT22;9169;44.492;11.372;2023-06-22T06:11:39;30.40;42.90
18085;DHT22;9169;44.492;11.372;2023-06-22T06:14:08;30.50;43.00
18085;DHT22;9169;44.492;11.372;2023-06-22T06:16:36;30.50;42.90
18085;DHT22;9169;44.492;11.372;2023-06-22T06:19:05;30.60;43.00
18085;DHT22;9169;44.492;11.372;2023-06-22T06:21:35;30.60;42.70
18085;DHT22;9169;44.492;11.372;2023-06-22T06:24:04;30.60;42.80
18085;DHT22;9169;44.492;11.372;2023-06-22T06:26:32;30.60;42.60
18085;DHT22;9169;44.492;11.372;2023-06-22T06:29:02;30.60;42.50
18085;DHT22;9169;44.492;11.372;2023-06-22T06:31:31;30.60;42.60
18085;DHT22;9169;44.492;11.372;2023-06-22T06:34:00;30.60;42.70
18085;DHT22;9169;44.492;11.372;2023-06-22T06:36:29;30.60;42.60
18085;DHT22;9169;44.492;11.372;2023-06-22T06:38:59;30.70;42.70
18085;DHT22;9169;44.492;11.372;2023-06-22T06:41:27;30.70;42.70
18085;DHT22;9169;44.492;11.372;2023-06-22T06:43:56;30.70;42.70
18085;DHT22;9169;44.492;11.372;2023-06-22T06:46:24;30.70;42.60
18085;DHT22;9169;44.492;11.372;2023-06-22T06:48:53;30.70;43.00
18085;DHT22;9169;44.492;11.372;2023-06-22T06:51:21;30.70;42.50
18085;DHT22;9169;44.492;11.372;2023-06-22T06:53:50;30.70;42.50
18085;DHT22;9169;44.492;11.372;2023-06-22T06:56:20;30.70;42.50
18085;DHT22;9169;44.492;11.372;2023-06-22T06:58:50;30.70;42.50
18085;DHT22;9169;44.492;11.372;2023-06-22T07:01:19;30.70;42.40
18085;DHT22;9169;44.492;11.372;2023-06-22T07:03:48;30.70;42.20
18085;DHT22;9169;44.492;11.372;2023-06-22T07:06:17;30.70;42.20
18085;DHT22;9169;44.492;11.372;2023-06-22T07:08:46;30.70;42.10
18085;DHT22;9169;44.492;11.372;2023-06-22T07:11:14;30.70;42.10
18085;DHT22;9169;44.492;11.372;2023-06-22T07:13:44;30.70;42.20
18085;DHT22;9169;44.492;11.372;2023-06-22T07:16:12;30.70;42.30
18085;DHT22;9169;44.492;11.372;2023-06-22T07:18:41;30.70;42.50
18085;DHT22;9169;44.492;11.372;2023-06-22T07:21:09;30.70;42.50
18085;DHT22;9169;44.492;11.372;2023-06-22T07:23:38;30.80;42.40
18085;DHT22;9169;44.492;11.372;2023-06-22T07:26:06;30.80;42.40
18085;DHT22;9169;44.492;11.372;2023-06-22T07:28:35;30.80;42.40
18085;DHT22;9169;44.492;11.372;2023-06-22T07:31:06;30.80;42.30
18085;DHT22;9169;44.492;11.372;2023-06-22T07:33:35;30.80;42.40
18085;DHT22;9169;44.492;11.372;2023-06-22T07:36:04;30.90;42.50
18085;DHT22;9169;44.492;11.372;2023-06-22T07:38:35;30.90;42.40
18085;DHT22;9169;44.492;11.372;2023-06-22T07:41:03;30.90;42.40
18085;DHT22;9169;44.492;11.372;2023-06-22T07:43:32;31.00;42.50
18085;DHT22;9169;44.492;11.372;2023-06-22T07:46:01;31.00;42.50
18085;DHT22;9169;44.492;11.372;2023-06-22T07:48:31;31.10;42.60
18085;DHT22;9169;44.492;11.372;2023-06-22T07:51:00;31.20;42.60
18085;DHT22;9169;44.492;11.372;2023-06-22T07:53:28;31.30;43.20
18085;DHT22;9169;44.492;11.372;2023-06-22T07:55:57;31.30;42.60
18085;DHT22;9169;44.492;11.372;2023-06-22T07:58:25;31.40;42.50
18085;DHT22;9169;44.492;11.372;2023-06-22T08:00:54;31.40;42.30
18085;DHT22;9169;44.492;11.372;2023-06-22T08:03:22;31.50;42.20
18085;DHT22;9169;44.492;11.372;2023-06-22T08:05:52;31.60;42.90
18085;DHT22;9169;44.492;11.372;2023-06-22T08:08:21;31.60;42.40
18085;DHT22;9169;44.492;11.372;2023-06-22T08:10:50;31.60;42.40
18085;DHT22;9169;44.492;11.372;2023-06-22T08:13:18;31.70;42.30
18085;DHT22;9169;44.492;11.372;2023-06-22T08:15:47;31.70;42.10
18085;DHT22;9169;44.492;11.372;2023-06-22T08:18:16;31.70;42.00
18085;DHT22;9169;44.492;11.372;2023-06-22T08:20:45;31.80;42.00
18085;DHT22;9169;44.492;11.372;2023-06-22T08:23:15;31.80;42.00
18085;DHT22;9169;44.492;11.372;2023-06-22T08:25:44;31.90;42.10
18085;DHT22;9169;44.492;11.372;2023-06-22T08:28:14;31.90;41.90
18085;DHT22;9169;44.492;11.372;2023-06-22T08:30:43;32.00;42.00
18085;DHT22;9169;44.492;11.372;2023-06-22T08:33:11;32.00;41.80
18085;DHT22;9169;44.492;11.372;2023-06-22T08:35:41;32.10;41.70
18085;DHT22;9169;44.492;11.372;2023-06-22T08:38:10;32.20;41.70
18085;DHT22;9169;44.492;11.372;2023-06-22T08:40:44;32.20;41.70
18085;DHT22;9169;44.492;11.372;2023-06-22T08:43:12;32.30;41.80
18085;DHT22;9169;44.492;11.372;2023-06-22T08:45:41;32.30;41.80
18085;DHT22;9169;44.492;11.372;2023-06-22T08:48:09;32.40;41.60
18085;DHT22;9169;44.492;11.372;2023-06-22T08:50:37;32.50;41.40
18085;DHT22;9169;44.492;11.372;2023-06-22T08:53:07;32.50;41.50
18085;DHT22;9169;44.492;11.372;2023-06-22T08:55:36;32.60;41.50
18085;DHT22;9169;44.492;11.372;2023-06-22T08:58:06;32.60;42.00
18085;DHT22;9169;44.492;11.372;2023-06-22T09:00:34;32.70;42.00
18085;DHT22;9169;44.492;11.372;2023-06-22T09:03:03;32.80;41.90
18085;DHT22;9169;44.492;11.372;2023-06-22T09:05:31;32.80;41.80
18085;DHT22;9169;44.492;11.372;2023-06-22T09:08:00;33.00;42.40
18085;DHT22;9169;44.492;11.372;2023-06-22T09:10:29;33.00;41.90
18085;DHT22;9169;44.492;11.372;2023-06-22T09:12:57;33.10;41.80
18085;DHT22;9169;44.492;11.372;2023-06-22T09:15:27;33.20;41.50
18085;DHT22;9169;44.492;11.372;2023-06-22T09:17:56;33.20;41.40
18085;DHT22;9169;44.492;11.372;2023-06-22T09:20:25;33.30;41.80
18085;DHT22;9169;44.492;11.372;2023-06-22T09:22:53;33.40;41.80
18085;DHT22;9169;44.492;11.372;2023-06-22T09:25:22;33.50;41.60
18085;DHT22;9169;44.492;11.372;2023-06-22T09:27:51;33.60;41.40
18085;DHT22;9169;44.492;11.372;2023-06-22T09:30:20;33.70;41.30
18085;DHT22;9169;44.492;11.372;2023-06-22T09:32:50;33.80;41.20
18085;DHT22;9169;44.492;11.372;2023-06-22T09:35:19;33.90;40.70
18085;DHT22;9169;44.492;11.372;2023-06-22T09:37:47;34.00;40.60
18085;DHT22;9169;44.492;11.372;2023-06-22T09:40:16;34.10;40.50
18085;DHT22;9169;44.492;11.372;2023-06-22T09:42:44;34.20;40.70
18085;DHT22;9169;44.492;11.372;2023-06-22T09:45:13;34.20;40.80
18085;DHT22;9169;44.492;11.372;2023-06-22T09:47:41;34.30;40.70
18085;DHT22;9169;44.492;11.372;2023-06-22T09:50:12;34.40;40.40
18085;DHT22;9169;44.492;11.372;2023-06-22T09:52:40;34.50;40.30
18085;DHT22;9169;44.492;11.372;2023-06-22T09:55:14;34.60;40.10
18085;DHT22;9169;44.492;11.372;2023-06-22T09:57:43;34.70;40.00
18085;DHT22;9169;44.492;11.372;2023-06-22T10:00:13;34.80;39.40
18085;DHT22;9169;44.492;11.372;2023-06-22T10:02:42;34.90;39.50
18085;DHT22;9169;44.492;11.372;2023-06-22T10:05:12;34.90;39.10
18085;DHT22;9169;44.492;11.372;2023-06-22T10:07:41;35.00;38.90
18085;DHT22;9169;44.492;11.372;2023-06-22T10:10:11;35.10;38.60
18085;DHT22;9169;44.492;11.372;2023-06-22T10:12:46;35.20;38.40
18085;DHT22;9169;44.492;11.372;2023-06-22T10:15:15;35.30;38.70
18085;DHT22;9169;44.492;11.372;2023-06-22T10:17:43;35.40;38.60
18085;DHT22;9169;44.492;11.372;2023-06-22T10:20:14;35.50;38.40
18085;DHT22;9169;44.492;11.372;2023-06-22T10:22:44;35.60;38.00
18085;DHT22;9169;44.492;11.372;2023-06-22T10:25:13;35.60;37.50
18085;DHT22;9169;44.492;11.372;2023-06-22T10:27:42;35.70;37.90
18085;DHT22;9169;44.492;11.372;2023-06-22T10:30:11;35.80;37.80
18085;DHT22;9169;44.492;11.372;2023-06-22T10:32:41;35.80;38.00
18085;DHT22;9169;44.492;11.372;2023-06-22T10:35:10;35.90;37.70
18085;DHT22;9169;44.492;11.372;2023-06-22T10:37:42;36.00;37.80
18085;DHT22;9169;44.492;11.372;2023-06-22T10:40:12;36.00;37.20
18085;DHT22;9169;44.492;11.372;2023-06-22T10:42:42;36.10;36.90
18085;DHT22;9169;44.492;11.372;2023-06-22T10:45:11;36.10;36.90
18085;DHT22;9169;44.492;11.372;2023-06-22T10:47:39;36.20;37.40
18085;DHT22;9169;44.492;11.372;2023-06-22T10:50:09;36.30;37.00
18085;DHT22;9169;44.492;11.372;2023-06-22T10:52:38;36.40;36.90
18085;DHT22;9169;44.492;11.372;2023-06-22T10:55:09;36.50;37.10
18085;DHT22;9169;44.492;11.372;2023-06-22T10:57:37;36.50;36.70
18085;DHT22;9169;44.492;11.372;2023-06-22T11:00:11;36.60;36.30
18085;DHT22;9169;44.492;11.372;2023-06-22T11:02:40;36.60;36.30
18085;DHT22;9169;44.492;11.372;2023-06-22T11:05:08;36.70;36.50
18085;DHT22;9169;44.492;11.372;2023-06-22T11:07:38;36.80;36.60
18085;DHT22;9169;44.492;11.372;2023-06-22T11:10:12;36.90;36.30
18085;DHT22;9169;44.492;11.372;2023-06-22T11:12:40;36.90;35.90
18085;DHT22;9169;44.492;11.372;2023-06-22T11:15:09;37.00;36.00
18085;DHT22;9169;44.492;11.372;2023-06-22T11:17:39;37.00;35.90
18085;DHT22;9169;44.492;11.372;2023-06-22T11:20:08;37.00;35.80
18085;DHT22;9169;44.492;11.372;2023-06-22T11:22:38;37.10;35.50
18085;DHT22;9169;44.492;11.372;2023-06-22T11:25:07;37.10;35.70
18085;DHT22;9169;44.492;11.372;2023-06-22T11:27:37;37.20;35.30
18085;DHT22;9169;44.492;11.372;2023-06-22T11:30:07;37.30;35.20
18085;DHT22;9169;44.492;11.372;2023-06-22T11:32:36;37.30;34.90
18085;DHT22;9169;44.492;11.372;2023-06-22T11:35:05;37.30;35.60
18085;DHT22;9169;44.492;11.372;2023-06-22T11:37:34;37.40;35.60
18085;DHT22;9169;44.492;11.372;2023-06-22T11:40:03;37.40;35.00
18085;DHT22;9169;44.492;11.372;2023-06-22T11:42:36;37.50;35.40
18085;DHT22;9169;44.492;11.372;2023-06-22T11:45:06;37.60;35.40
18085;DHT22;9169;44.492;11.372;2023-06-22T11:47:35;37.60;35.00
18085;DHT22;9169;44.492;11.372;2023-06-22T11:50:04;37.70;34.80
18085;DHT22;9169;44.492;11.372;2023-06-22T11:52:33;37.70;34.20
18085;DHT22;9169;44.492;11.372;2023-06-22T11:55:03;37.80;34.40
18085;DHT22;9169;44.492;11.372;2023-06-22T11:57:35;37.90;34.50
18085;DHT22;9169;44.492;11.372;2023-06-22T12:00:06;38.00;34.40
18085;DHT22;9169;44.492;11.372;2023-06-22T12:02:43;38.10;34.30
18085;DHT22;9169;44.492;11.372;2023-06-22T12:05:12;38.30;34.50
18085;DHT22;9169;44.492;11.372;2023-06-22T12:07:40;38.70;34.00
18085;DHT22;9169;44.492;11.372;2023-06-22T12:10:09;39.30;33.70
18085;DHT22;9169;44.492;11.372;2023-06-22T12:12:38;39.90;33.10
18085;DHT22;9169;44.492;11.372;2023-06-22T12:15:09;40.50;32.60
18085;DHT22;9169;44.492;11.372;2023-06-22T12:17:38;41.10;31.90
18085;DHT22;9169;44.492;11.372;2023-06-22T12:20:07;41.60;31.80
18085;DHT22;9169;44.492;11.372;2023-06-22T12:22:36;42.10;31.20
18085;DHT22;9169;44.492;11.372;2023-06-22T12:25:06;42.60;31.00
18085;DHT22;9169;44.492;11.372;2023-06-22T12:27:35;43.10;30.60
18085;DHT22;9169;44.492;11.372;2023-06-22T12:30:04;43.50;30.00
18085;DHT22;9169;44.492;11.372;2023-06-22T12:32:34;43.80;29.80
18085;DHT22;9169;44.492;11.372;2023-06-22T12:35:04;44.10;29.70
18085;DHT22;9169;44.492;11.372;2023-06-22T12:37:34;44.30;29.70
18085;DHT22;9169;44.492;11.372;2023-06-22T12:40:03;44.70;29.70
18085;DHT22;9169;44.492;11.372;2023-06-22T12:42:32;44.90;29.00
18085;DHT22;9169;44.492;11.372;2023-06-22T12:45:00;45.20;29.00
18085;DHT22;9169;44.492;11.372;2023-06-22T12:47:31;45.50;28.60
18085;DHT22;9169;44.492;11.372;2023-06-22T12:50:01;45.70;28.40
18085;DHT22;9169;44.492;11.372;2023-06-22T12:52:30;46.00;28.10
18085;DHT22;9169;44.492;11.372;2023-06-22T12:54:59;46.30;28.30
18085;DHT22;9169;44.492;11.372;2023-06-22T12:57:28;46.60;27.60
18085;DHT22;9169;44.492;11.372;2023-06-22T12:59:56;46.80;27.90
18085;DHT22;9169;44.492;11.372;2023-06-22T13:02:25;46.90;27.30
18085;DHT22;9169;44.492;11.372;2023-06-22T13:04:57;47.10;27.00
18085;DHT22;9169;44.492;11.372;2023-06-22T13:07:26;47.10;26.90
18085;DHT22;9169;44.492;11.372;2023-06-22T13:09:55;47.10;26.50
18085;DHT22;9169;44.492;11.372;2023-06-22T13:12:23;47.30;26.70
18085;DHT22;9169;44.492;11.372;2023-06-22T13:14:52;47.40;26.70
18085;DHT22;9169;44.492;11.372;2023-06-22T13:17:21;47.40;27.20
18085;DHT22;9169;44.492;11.372;2023-06-22T13:19:49;47.40;26.10
18085;DHT22;9169;44.492;11.372;2023-06-22T13:22:30;47.30;26.30
18085;DHT22;9169;44.492;11.372;2023-06-22T13:25:00;47.10;26.10
18085;DHT22;9169;44.492;11.372;2023-06-22T13:27:30;46.90;26.40
18085;DHT22;9169;44.492;11.372;2023-06-22T13:29:58;46.50;26.10
18085;DHT22;9169;44.492;11.372;2023-06-22T13:32:27;46.20;26.00
18085;DHT22;9169;44.492;11.372;2023-06-22T13:34:55;45.80;26.90
18085;DHT22;9169;44.492;11.372;2023-06-22T13:37:25;45.60;26.50
18085;DHT22;9169;44.492;11.372;2023-06-22T13:39:55;45.60;26.80
18085;DHT22;9169;44.492;11.372;2023-06-22T13:42:26;45.60;26.80
18085;DHT22;9169;44.492;11.372;2023-06-22T13:44:55;45.60;26.90
18085;DHT22;9169;44.492;11.372;2023-06-22T13:47:23;45.60;26.90
18085;DHT22;9169;44.492;11.372;2023-06-22T13:49:52;45.60;26.90
18085;DHT22;9169;44.492;11.372;2023-06-22T13:52:21;45.50;26.90
18085;DHT22;9169;44.492;11.372;2023-06-22T13:54:49;45.50;27.00
18085;DHT22;9169;44.492;11.372;2023-06-22T13:57:21;45.60;27.20
18085;DHT22;9169;44.492;11.372;2023-06-22T13:59:49;45.70;27.10
18085;DHT22;9169;44.492;11.372;2023-06-22T14:02:18;45.80;27.20
18085;DHT22;9169;44.492;11.372;2023-06-22T14:04:46;46.00;27.00
18085;DHT22;9169;44.492;11.372;2023-06-22T14:07:15;46.10;26.80
18085;DHT22;9169;44.492;11.372;2023-06-22T14:09:43;46.20;26.90
18085;DHT22;9169;44.492;11.372;2023-06-22T14:12:12;46.30;27.00
18085;DHT22;9169;44.492;11.372;2023-06-22T14:14:42;46.50;26.80
18085;DHT22;9169;44.492;11.372;2023-06-22T14:17:11;46.70;27.10
18085;DHT22;9169;44.492;11.372;2023-06-22T14:19:39;46.90;26.90
18085;DHT22;9169;44.492;11.372;2023-06-22T14:22:08;46.90;26.80
18085;DHT22;9169;44.492;11.372;2023-06-22T14:24:36;46.80;26.80
18085;DHT22;9169;44.492;11.372;2023-06-22T14:27:05;46.60;27.10
18085;DHT22;9169;44.492;11.372;2023-06-22T14:29:35;46.40;27.10
18085;DHT22;9169;44.492;11.372;2023-06-22T14:32:06;46.00;27.10
18085;DHT22;9169;44.492;11.372;2023-06-22T14:34:36;45.60;27.20
18085;DHT22;9169;44.492;11.372;2023-06-22T14:37:06;45.00;27.40
18085;DHT22;9169;44.492;11.372;2023-06-22T14:39:36;44.70;27.60
18085;DHT22;9169;44.492;11.372;2023-06-22T14:42:05;44.50;27.70
18085;DHT22;9169;44.492;11.372;2023-06-22T14:44:34;44.40;27.90
18085;DHT22;9169;44.492;11.372;2023-06-22T14:47:07;44.30;27.80
18085;DHT22;9169;44.492;11.372;2023-06-22T14:49:35;44.20;28.00
18085;DHT22;9169;44.492;11.372;2023-06-22T14:52:05;44.10;28.20
18085;DHT22;9169;44.492;11.372;2023-06-22T14:54:34;43.90;28.00
18085;DHT22;9169;44.492;11.372;2023-06-22T14:57:02;43.80;28.20
18085;DHT22;9169;44.492;11.372;2023-06-22T14:59:31;43.80;28.30
18085;DHT22;9169;44.492;11.372;2023-06-22T15:01:59;43.60;28.30
18085;DHT22;9169;44.492;11.372;2023-06-22T15:04:30;43.40;28.20
18085;DHT22;9169;44.492;11.372;2023-06-22T15:07:02;43.20;28.20
18085;DHT22;9169;44.492;11.372;2023-06-22T15:09:30;42.90;29.30
18085;DHT22;9169;44.492;11.372;2023-06-22T15:12:00;42.80;29.10
18085;DHT22;9169;44.492;11.372;2023-06-22T15:14:32;42.50;28.60
18085;DHT22;9169;44.492;11.372;2023-06-22T15:17:01;42.30;28.80
18085;DHT22;9169;44.492;11.372;2023-06-22T15:19:31;42.10;29.20
18085;DHT22;9169;44.492;11.372;2023-06-22T15:21:59;41.90;29.30
18085;DHT22;9169;44.492;11.372;2023-06-22T15:24:27;41.70;29.30
18085;DHT22;9169;44.492;11.372;2023-06-22T15:26:56;41.60;29.70
18085;DHT22;9169;44.492;11.372;2023-06-22T15:29:24;41.50;29.60
18085;DHT22;9169;44.492;11.372;2023-06-22T15:31:53;41.30;29.30
18085;DHT22;9169;44.492;11.372;2023-06-22T15:34:22;41.10;29.00
18085;DHT22;9169;44.492;11.372;2023-06-22T15:36:51;41.00;29.30
18085;DHT22;9169;44.492;11.372;2023-06-22T15:39:20;40.80;29.90
18085;DHT22;9169;44.492;11.372;2023-06-22T15:41:50;40.70;30.10
18085;DHT22;9169;44.492;11.372;2023-06-22T15:44:21;40.50;30.00